createdAt,value
2017-05-22T00:00:40.844Z,0
2017-05-22T00:02:56.277Z,0
2017-05-22T00:05:20.126Z,0
2017-05-22T00:07:43.978Z,0
2017-05-22T00:10:07.816Z,0
2017-05-22T00:16:01.493Z,0
2017-05-22T00:18:16.927Z,0
2017-05-22T00:20:40.812Z,0
2017-05-22T00:25:15.037Z,0
2017-05-22T00:27:30.500Z,0
2017-05-22T00:29:54.353Z,0
2017-05-22T00:32:18.239Z,0
2017-05-22T00:36:27.020Z,0
2017-05-22T00:38:50.888Z,0
2017-05-22T00:41:14.742Z,0
2017-05-22T00:43:38.610Z,0
2017-05-22T00:46:02.416Z,0
2017-05-22T00:48:26.244Z,0
2017-05-22T00:52:51.931Z,0
2017-05-22T00:57:17.580Z,0
2017-05-22T00:59:41.437Z,0
2017-05-22T01:04:07.123Z,0
2017-05-22T01:06:22.537Z,0
2017-05-22T01:08:37.920Z,0
2017-05-22T01:12:39.013Z,0
2017-05-22T01:14:55.418Z,0
2017-05-22T01:17:19.239Z,0
2017-05-22T01:19:43.044Z,0
2017-05-22T01:21:58.440Z,0
2017-05-22T01:24:22.289Z,0
2017-05-22T01:26:46.123Z,0
2017-05-22T01:29:09.896Z,0
2017-05-22T01:31:33.699Z,0
2017-05-22T01:33:57.525Z,0
2017-05-22T01:36:12.851Z,0
2017-05-22T01:40:38.495Z,0
2017-05-22T01:43:02.305Z,0
2017-05-22T01:45:26.093Z,0
2017-05-22T01:47:41.469Z,0
2017-05-22T01:50:05.185Z,0
2017-05-22T01:52:28.984Z,0
2017-05-22T01:54:52.780Z,0
2017-05-22T01:57:08.179Z,0
2017-05-22T01:59:31.990Z,0
2017-05-22T02:01:55.787Z,0
2017-05-22T02:04:19.576Z,0
2017-05-22T02:08:53.680Z,0
2017-05-22T02:11:17.475Z,0
2017-05-22T02:15:51.570Z,0
2017-05-22T02:18:06.942Z,0
2017-05-22T02:20:30.721Z,0
2017-05-22T02:22:46.042Z,0
2017-05-22T02:25:09.738Z,0
2017-05-22T02:27:16.644Z,0
2017-05-22T02:29:40.343Z,0
2017-05-22T02:31:55.657Z,0
2017-05-22T02:34:19.413Z,0
2017-05-22T02:36:26.328Z,0
2017-05-22T02:38:33.241Z,0
2017-05-22T02:40:56.963Z,0
2017-05-22T02:43:20.722Z,0
2017-05-22T02:45:44.463Z,0
2017-05-22T02:48:08.213Z,0
2017-05-22T02:50:23.518Z,0
2017-05-22T02:52:47.207Z,0
2017-05-22T02:55:10.934Z,0
2017-05-22T02:57:34.651Z,0
2017-05-22T02:59:58.379Z,0
2017-05-22T03:02:22.086Z,0
2017-05-22T03:04:45.833Z,0
2017-05-22T03:07:01.126Z,0
2017-05-22T03:09:24.795Z,0
2017-05-22T03:11:48.532Z,0
2017-05-22T03:14:12.262Z,0
2017-05-22T03:16:36.002Z,0
2017-05-22T03:18:51.303Z,0
2017-05-22T03:21:15.059Z,0
2017-05-22T03:23:38.690Z,0
2017-05-22T03:26:02.383Z,0
2017-05-22T03:28:26.090Z,0
2017-05-22T03:30:49.799Z,0
2017-05-22T03:33:14.469Z,0
2017-05-22T03:35:38.173Z,0
2017-05-22T03:38:01.866Z,0
2017-05-22T03:40:17.162Z,0
2017-05-22T03:44:08.722Z,0
2017-05-22T03:46:32.400Z,0
2017-05-22T03:48:56.056Z,0
2017-05-22T03:51:19.726Z,5
2017-05-22T03:53:43.401Z,5
2017-05-22T03:55:59.714Z,5
2017-05-22T04:00:33.736Z,5
2017-05-22T04:02:57.433Z,10
2017-05-22T04:05:21.134Z,10
2017-05-22T04:07:44.821Z,10
2017-05-22T04:10:08.530Z,10
2017-05-22T04:12:23.817Z,15
2017-05-22T04:14:47.528Z,20
2017-05-22T04:17:11.241Z,25
2017-05-22T04:19:34.991Z,25
2017-05-22T04:21:58.747Z,30
2017-05-22T04:24:22.528Z,35
2017-05-22T04:26:46.308Z,40
2017-05-22T04:29:10.111Z,40
2017-05-22T04:31:33.906Z,50
2017-05-22T04:33:57.768Z,60
2017-05-22T04:36:21.717Z,60
2017-05-22T04:38:45.760Z,65
2017-05-22T04:41:09.891Z,65
2017-05-22T04:43:25.644Z,70
2017-05-22T04:45:49.854Z,75
2017-05-22T04:48:14.121Z,85
2017-05-22T04:50:38.478Z,100
2017-05-22T04:53:02.964Z,100
2017-05-22T04:55:27.460Z,95
2017-05-22T04:57:52.134Z,110
2017-05-22T05:00:08.295Z,130
2017-05-22T05:02:33.030Z,140
2017-05-22T05:04:57.903Z,145
2017-05-22T05:07:22.893Z,155
2017-05-22T05:09:48.024Z,160
2017-05-22T05:12:13.242Z,170
2017-05-22T05:14:29.995Z,170
2017-05-22T05:16:55.392Z,180
2017-05-22T05:19:20.909Z,185
2017-05-22T05:21:37.964Z,195
2017-05-22T05:24:03.611Z,200
2017-05-22T05:26:29.325Z,210
2017-05-22T05:28:55.149Z,220
2017-05-22T05:31:20.997Z,230
2017-05-22T05:33:38.345Z,240
2017-05-22T05:36:04.327Z,255
2017-05-22T05:38:30.390Z,270
2017-05-22T05:40:56.485Z,285
2017-05-22T05:43:14.056Z,300
2017-05-22T05:45:40.257Z,325
2017-05-22T05:48:06.464Z,640
2017-05-22T05:50:33.300Z,1210
2017-05-22T05:52:59.529Z,1265
2017-05-22T05:57:28.470Z,1300
2017-05-22T06:02:06.052Z,1465
2017-05-22T06:04:32.481Z,1440
2017-05-22T06:08:35.534Z,1390
2017-05-22T06:10:53.503Z,1530
2017-05-22T06:13:20.045Z,1505
2017-05-22T06:15:46.629Z,1485
2017-05-22T06:18:13.281Z,1480
2017-05-22T06:20:39.992Z,1515
2017-05-22T06:23:06.692Z,1510
2017-05-22T06:25:33.422Z,1510
2017-05-22T06:28:00.168Z,775
2017-05-22T06:30:26.954Z,465
2017-05-22T06:32:53.763Z,465
2017-05-22T06:37:31.793Z,505
2017-05-22T06:39:58.677Z,520
2017-05-22T06:42:25.597Z,570
2017-05-22T06:46:55.242Z,1640
2017-05-22T06:49:22.242Z,1630
2017-05-22T06:53:51.754Z,495
2017-05-22T06:56:18.554Z,495
2017-05-22T06:58:45.208Z,540
2017-05-22T07:01:11.703Z,585
2017-05-22T07:03:38.044Z,610
2017-05-22T07:06:04.182Z,600
2017-05-22T07:08:30.189Z,570
2017-05-22T07:12:49.809Z,550
2017-05-22T07:15:15.504Z,510
2017-05-22T07:17:41.090Z,415
2017-05-22T07:20:06.580Z,410
2017-05-22T07:22:31.995Z,430
2017-05-22T07:24:57.329Z,475
2017-05-22T07:27:22.653Z,535
2017-05-22T07:29:47.886Z,510
2017-05-22T07:32:04.639Z,480
2017-05-22T07:34:21.398Z,465
2017-05-22T07:36:46.604Z,470
2017-05-22T07:39:11.878Z,460
2017-05-22T07:41:37.184Z,440
2017-05-22T07:44:02.497Z,435
2017-05-22T07:50:07.212Z,430
2017-05-22T07:52:32.607Z,420
2017-05-22T07:54:57.997Z,425
2017-05-22T07:57:23.375Z,425
2017-05-22T07:59:48.758Z,415
2017-05-22T08:02:05.667Z,405
2017-05-22T08:04:22.525Z,395
2017-05-22T08:06:47.987Z,395
2017-05-22T08:09:13.432Z,380
2017-05-22T08:13:41.066Z,365
2017-05-22T08:16:06.561Z,365
2017-05-22T08:18:32.032Z,360
2017-05-22T08:20:57.455Z,360
2017-05-22T08:23:22.933Z,355
2017-05-22T08:25:48.374Z,370
2017-05-22T08:28:06.314Z,360
2017-05-22T08:30:23.227Z,415
2017-05-22T08:36:53.347Z,360
2017-05-22T08:39:10.322Z,365
2017-05-22T08:41:27.328Z,385
2017-05-22T08:43:44.341Z,390
2017-05-22T08:46:09.874Z,390
2017-05-22T08:48:26.904Z,395
2017-05-22T08:50:52.448Z,390
2017-05-22T08:53:09.480Z,375
2017-05-22T08:55:34.977Z,375
2017-05-22T08:58:00.479Z,375
2017-05-22T09:00:18.448Z,375
2017-05-22T09:02:35.440Z,380
2017-05-22T09:05:00.975Z,370
2017-05-22T09:07:26.517Z,370
2017-05-22T09:09:52.044Z,355
2017-05-22T09:12:17.545Z,360
2017-05-22T09:14:43.053Z,355
2017-05-22T09:17:08.563Z,290
2017-05-22T09:21:27.806Z,325
2017-05-22T09:23:53.322Z,310
2017-05-22T09:26:18.828Z,300
2017-05-22T09:28:44.220Z,290
2017-05-22T09:31:01.119Z,285
2017-05-22T09:33:26.546Z,280
2017-05-22T09:35:51.981Z,275
2017-05-22T09:38:17.384Z,260
2017-05-22T09:42:53.679Z,255
2017-05-22T09:45:10.608Z,250
2017-05-22T09:47:36.035Z,250
2017-05-22T09:49:53.007Z,245
2017-05-22T09:52:18.418Z,235
2017-05-22T09:54:44.792Z,240
2017-05-22T09:57:10.168Z,240
2017-05-22T09:59:35.509Z,240
2017-05-22T10:01:52.342Z,230
2017-05-22T10:04:17.627Z,220
2017-05-22T10:06:42.886Z,190
2017-05-22T10:08:59.613Z,205
2017-05-22T10:11:24.838Z,195
2017-05-22T10:16:00.840Z,155
2017-05-22T10:18:26.023Z,155
2017-05-22T10:20:51.160Z,185
2017-05-22T10:23:16.241Z,180
2017-05-22T10:25:41.290Z,120
2017-05-22T10:28:06.342Z,125
2017-05-22T10:30:22.826Z,125
2017-05-22T10:32:39.295Z,130
2017-05-22T10:35:04.169Z,170
2017-05-22T10:37:29.045Z,120
2017-05-22T10:39:53.941Z,170
2017-05-22T10:42:18.821Z,140
2017-05-22T10:44:43.710Z,115
2017-05-22T10:47:08.607Z,155
2017-05-22T10:49:33.465Z,110
2017-05-22T10:51:58.352Z,115
2017-05-22T10:54:23.158Z,110
2017-05-22T10:56:47.932Z,150
2017-05-22T10:59:12.658Z,145
2017-05-22T11:05:24.567Z,140
2017-05-22T11:07:49.374Z,95
2017-05-22T11:12:16.229Z,135
2017-05-22T11:14:41.020Z,130
2017-05-22T11:17:05.738Z,125
2017-05-22T11:19:22.019Z,125
2017-05-22T11:21:38.283Z,125
2017-05-22T11:24:03.010Z,120
2017-05-22T11:26:27.754Z,120
2017-05-22T11:28:52.498Z,120
2017-05-22T11:31:17.254Z,120
2017-05-22T11:33:42.017Z,120
2017-05-22T11:36:06.771Z,120
2017-05-22T11:38:31.571Z,95
2017-05-22T11:40:47.878Z,120
2017-05-22T11:43:12.635Z,115
2017-05-22T11:45:37.391Z,120
2017-05-22T11:48:02.238Z,115
2017-05-22T11:50:26.966Z,115
2017-05-22T11:52:43.305Z,115
2017-05-22T11:55:08.060Z,115
2017-05-22T11:59:43.443Z,115
2017-05-22T12:03:44.567Z,110
2017-05-22T12:06:09.338Z,110
2017-05-22T12:08:25.666Z,105
2017-05-22T12:10:50.371Z,110
2017-05-22T12:13:06.616Z,105
2017-05-22T12:15:31.348Z,85
2017-05-22T12:17:56.122Z,105
2017-05-22T12:20:20.861Z,100
2017-05-22T12:22:45.638Z,105
2017-05-22T12:25:10.438Z,105
2017-05-22T12:27:35.216Z,100
2017-05-22T12:32:01.993Z,100
2017-05-22T12:34:09.834Z,95
2017-05-22T12:36:34.554Z,95
2017-05-22T12:38:42.341Z,95
2017-05-22T12:41:07.078Z,95
2017-05-22T12:43:31.828Z,90
2017-05-22T12:45:56.590Z,90
2017-05-22T12:48:21.327Z,90
2017-05-22T12:50:46.073Z,90
2017-05-22T12:53:10.836Z,90
2017-05-22T12:55:35.615Z,95
2017-05-22T12:58:00.377Z,100
2017-05-22T13:00:25.124Z,100
2017-05-22T13:02:49.883Z,100
2017-05-22T13:05:06.207Z,95
2017-05-22T13:07:22.514Z,90
2017-05-22T13:09:47.290Z,95
2017-05-22T13:12:12.032Z,90
2017-05-22T13:14:36.845Z,85
2017-05-22T13:17:01.663Z,85
2017-05-22T13:19:26.451Z,85
2017-05-22T13:21:52.210Z,90
2017-05-22T13:24:17.036Z,80
2017-05-22T13:26:41.856Z,80
2017-05-22T13:29:06.680Z,80
2017-05-22T13:31:31.472Z,80
2017-05-22T13:33:56.263Z,80
2017-05-22T13:36:21.079Z,80
2017-05-22T13:40:56.531Z,70
2017-05-22T13:43:21.273Z,75
2017-05-22T13:45:46.008Z,65
2017-05-22T13:48:10.723Z,65
2017-05-22T13:50:35.406Z,60
2017-05-22T13:53:00.076Z,60
2017-05-22T13:55:16.290Z,60
2017-05-22T13:57:40.973Z,70
2017-05-22T14:00:05.668Z,75
2017-05-22T14:02:30.334Z,65
2017-05-22T14:04:55.932Z,60
2017-05-22T14:07:20.598Z,70
2017-05-22T14:09:45.273Z,75
2017-05-22T14:12:09.994Z,75
2017-05-22T14:14:26.209Z,70
2017-05-22T14:16:50.912Z,75
2017-05-22T14:19:15.591Z,75
2017-05-22T14:21:40.287Z,70
2017-05-22T14:24:04.988Z,75
2017-05-22T14:28:40.331Z,70
2017-05-22T14:30:56.773Z,75
2017-05-22T14:33:13.054Z,75
2017-05-22T14:35:37.821Z,75
2017-05-22T14:37:45.652Z,75
2017-05-22T14:40:10.419Z,75
2017-05-22T14:42:26.747Z,70
2017-05-22T14:44:51.514Z,75
2017-05-22T14:47:16.299Z,70
2017-05-22T14:49:42.042Z,70
2017-05-22T14:52:06.798Z,75
2017-05-22T14:54:31.646Z,75
2017-05-22T14:56:47.950Z,75
2017-05-22T14:59:04.157Z,75
2017-05-22T15:03:30.654Z,75
2017-05-22T15:05:55.515Z,70
2017-05-22T15:08:20.312Z,70
2017-05-22T15:12:56.750Z,65
2017-05-22T15:15:21.599Z,65
2017-05-22T15:17:46.375Z,60
2017-05-22T15:20:11.208Z,60
2017-05-22T15:22:35.988Z,60
2017-05-22T15:25:00.800Z,60
2017-05-22T15:27:25.571Z,60
2017-05-22T15:29:50.251Z,60
2017-05-22T15:32:14.961Z,60
2017-05-22T15:34:39.760Z,60
2017-05-22T15:37:04.474Z,60
2017-05-22T15:39:29.153Z,55
2017-05-22T15:41:53.985Z,55
2017-05-22T15:46:11.758Z,55
2017-05-22T15:48:36.500Z,55
2017-05-22T15:51:01.187Z,55
2017-05-22T15:53:25.891Z,55
2017-05-22T15:55:50.564Z,55
2017-05-22T15:58:15.260Z,55
2017-05-22T16:00:39.975Z,55
2017-05-22T16:03:04.656Z,55
2017-05-22T16:05:29.365Z,55
2017-05-22T16:07:45.579Z,55
2017-05-22T16:10:10.251Z,55
2017-05-22T16:12:34.952Z,55
2017-05-22T16:14:59.674Z,55
2017-05-22T16:17:24.339Z,55
2017-05-22T16:19:49.049Z,55
2017-05-22T16:22:13.692Z,55
2017-05-22T16:24:39.350Z,55
2017-05-22T16:26:55.595Z,55
2017-05-22T16:29:20.296Z,55
2017-05-22T16:31:44.922Z,55
2017-05-22T16:34:01.191Z,55
2017-05-22T16:36:27.940Z,55
2017-05-22T16:38:52.574Z,55
2017-05-22T16:41:17.265Z,55
2017-05-22T16:43:41.863Z,50
2017-05-22T16:46:06.446Z,50
2017-05-22T16:48:31.066Z,50
2017-05-22T16:53:05.801Z,50
2017-05-22T16:55:30.376Z,50
2017-05-22T16:57:54.960Z,50
2017-05-22T17:00:11.091Z,50
2017-05-22T17:02:35.659Z,50
2017-05-22T17:04:51.805Z,45
2017-05-22T17:07:16.466Z,50
2017-05-22T17:09:41.054Z,45
2017-05-22T17:12:07.750Z,45
2017-05-22T17:14:32.288Z,45
2017-05-22T17:16:56.873Z,45
2017-05-22T17:19:21.478Z,45
2017-05-22T17:21:46.056Z,45
2017-05-22T17:24:18.143Z,40
2017-05-22T17:30:45.711Z,40
2017-05-22T17:33:10.302Z,40
2017-05-22T17:35:35.818Z,40
2017-05-22T17:38:00.329Z,30
2017-05-22T17:40:24.891Z,35
2017-05-22T17:42:49.415Z,35
2017-05-22T17:45:13.999Z,35
2017-05-22T17:47:30.124Z,30
2017-05-22T17:49:46.842Z,30
2017-05-22T17:52:02.915Z,30
2017-05-22T17:54:27.477Z,30
2017-05-22T17:56:52.122Z,30
2017-05-22T17:59:16.679Z,25
2017-05-22T18:01:41.286Z,25
2017-05-22T18:06:07.772Z,25
2017-05-22T18:08:32.333Z,25
2017-05-22T18:13:07.464Z,20
2017-05-22T18:15:23.561Z,15
2017-05-22T18:17:48.059Z,15
2017-05-22T18:20:12.538Z,15
2017-05-22T18:22:37.037Z,15
2017-05-22T18:25:01.542Z,10
2017-05-22T18:27:26.032Z,10
2017-05-22T18:29:50.529Z,10
2017-05-22T18:32:14.993Z,10
2017-05-22T18:36:50.574Z,10
2017-05-22T18:39:15.052Z,5
2017-05-22T18:41:39.540Z,5
2017-05-22T18:44:04.046Z,5
2017-05-22T18:46:28.529Z,5
2017-05-22T18:48:52.912Z,5
2017-05-22T18:51:17.423Z,5
2017-05-22T18:53:41.908Z,5
2017-05-22T18:56:06.374Z,0
2017-05-22T18:58:30.767Z,0
2017-05-22T19:00:56.193Z,0
2017-05-22T19:03:20.682Z,0
2017-05-22T19:05:45.076Z,0
2017-05-22T19:08:01.013Z,0
2017-05-22T19:10:25.444Z,0
2017-05-22T19:12:49.832Z,0
2017-05-22T19:15:14.249Z,0
2017-05-22T19:19:50.125Z,0
2017-05-22T19:22:14.558Z,0
2017-05-22T19:24:30.502Z,0
2017-05-22T19:26:46.454Z,0
2017-05-22T19:29:10.834Z,0
2017-05-22T19:31:35.241Z,0
2017-05-22T19:34:01.877Z,0
2017-05-22T19:36:26.272Z,0
2017-05-22T19:38:57.580Z,0
2017-05-22T19:41:21.901Z,0
2017-05-22T19:43:52.973Z,0
2017-05-22T19:46:25.256Z,0
2017-05-22T19:48:49.612Z,0
2017-05-22T19:51:15.204Z,0
2017-05-22T19:53:51.382Z,0
2017-05-22T19:58:33.987Z,0
2017-05-22T20:03:09.588Z,0
2017-05-22T20:09:45.838Z,0
2017-05-22T20:12:01.849Z,0
2017-05-22T20:14:26.172Z,0
2017-05-22T20:16:50.574Z,0
2017-05-22T20:19:06.399Z,0
2017-05-22T20:21:30.731Z,0
2017-05-22T20:23:55.169Z,0
2017-05-22T20:26:10.949Z,0
2017-05-22T20:28:35.294Z,0
2017-05-22T20:33:01.519Z,0
2017-05-22T20:35:25.841Z,0
2017-05-22T20:37:50.119Z,0
2017-05-22T20:40:14.401Z,0
2017-05-22T20:42:38.694Z,0
2017-05-22T20:45:02.993Z,0
2017-05-22T20:47:27.262Z,0
2017-05-22T20:49:51.532Z,0
2017-05-22T20:52:15.859Z,0
2017-05-22T20:54:40.091Z,0
2017-05-22T20:57:04.314Z,0
2017-05-22T20:59:28.584Z,0
2017-05-22T21:01:52.869Z,0
2017-05-22T21:04:17.040Z,0
2017-05-22T21:06:41.330Z,0
2017-05-22T21:09:05.613Z,0
2017-05-22T21:11:29.917Z,0
2017-05-22T21:13:54.089Z,0
2017-05-22T21:16:18.295Z,0
2017-05-22T21:20:35.502Z,0
2017-05-22T21:22:59.703Z,0
2017-05-22T21:25:23.883Z,0
2017-05-22T21:27:48.054Z,0
2017-05-22T21:30:12.231Z,0
2017-05-22T21:34:46.422Z,0
2017-05-22T21:37:02.226Z,0
2017-05-22T21:39:26.452Z,0
2017-05-22T21:41:50.640Z,0
2017-05-22T21:44:14.816Z,0
2017-05-22T21:46:30.488Z,0
2017-05-22T21:48:54.569Z,0
2017-05-22T21:51:10.365Z,0
2017-05-22T21:53:34.560Z,0
2017-05-22T21:55:58.723Z,0
2017-05-22T21:58:14.467Z,0
2017-05-22T22:00:38.695Z,0
2017-05-22T22:03:02.884Z,0
2017-05-22T22:05:27.073Z,0
2017-05-22T22:07:51.252Z,0
2017-05-22T22:10:07.030Z,0
2017-05-22T22:12:31.212Z,0
2017-05-22T22:14:55.403Z,0
2017-05-22T22:17:11.075Z,0
2017-05-22T22:19:35.271Z,0
2017-05-22T22:21:51.015Z,0
2017-05-22T22:24:15.135Z,0
2017-05-22T22:26:39.323Z,0
2017-05-22T22:29:03.514Z,0
2017-05-22T22:33:29.196Z,0
2017-05-22T22:35:53.350Z,0
2017-05-22T22:38:17.514Z,0
2017-05-22T22:40:41.719Z,0
2017-05-22T22:43:05.893Z,0
2017-05-22T22:45:29.967Z,0
2017-05-22T22:47:54.157Z,0
2017-05-22T22:52:28.458Z,0
2017-05-22T22:54:52.676Z,0
2017-05-22T22:57:16.877Z,0
2017-05-22T22:59:32.609Z,0
2017-05-22T23:01:56.737Z,0
2017-05-22T23:04:12.384Z,0
2017-05-22T23:08:46.501Z,0
2017-05-22T23:11:10.621Z,0
2017-05-22T23:13:26.381Z,0
2017-05-22T23:15:50.500Z,0
2017-05-22T23:18:14.661Z,0
2017-05-22T23:20:38.753Z,0
2017-05-22T23:23:02.836Z,0
2017-05-22T23:25:18.488Z,0
2017-05-22T23:27:42.584Z,0
2017-05-22T23:30:06.686Z,0
2017-05-22T23:32:30.768Z,0
2017-05-22T23:34:54.937Z,0
2017-05-22T23:37:19.036Z,0
2017-05-22T23:39:43.132Z,0
2017-05-22T23:42:07.191Z,0
2017-05-22T23:44:31.283Z,0
2017-05-22T23:49:05.289Z,0
2017-05-22T23:51:29.401Z,0
2017-05-22T23:53:45.041Z,0
2017-05-22T23:56:09.174Z,0
2017-05-22T23:58:33.246Z,0
